Tiverton, Rhode Island
Current Conditions -  °F | °C
As of 2:53 AM on Tuesday 21 Oct 2014 (Local Time) from KUUU Reporting Station
Few Clouds Few Clouds  
Wind Chill: 60°   Ceiling: Unl
Heat Index: 60°   Visibility: 10mi
Dew Point: 50°   Wind: 7mph
Humidity: 69%   Direction: 190°S
Pressure: 29.98"   Gusts: NA
Location:  41.62°N, 71.21°W
Report Text: KUUU 210653Z AUTO 19006KT 10SM FEW031 16/10 A2998 RMK AO2 RAB02E17 SLP150 P0001 T01560100
Loading
Personal Weather Stations






























Interactive Weather Map New forecast layout! Learn more

10-Day Weather Forecast

Advertisements
Track Severe Weather on mobile